createdAt,value
2023-01-11T00:12:48.841Z,22.90
2023-01-11T00:22:51.263Z,22.60
2023-01-11T00:32:48.867Z,23.50
2023-01-11T00:42:51.389Z,23.70
2023-01-11T00:52:48.927Z,23.40
2023-01-11T01:02:48.865Z,24.60
2023-01-11T01:12:48.776Z,24.20
2023-01-11T01:22:48.799Z,25.10
2023-01-11T01:42:48.788Z,22.40
2023-01-11T01:52:48.807Z,22.20
2023-01-11T02:02:48.829Z,23.00
2023-01-11T02:12:48.811Z,21.10
2023-01-11T02:22:48.805Z,21.90
2023-01-11T02:32:48.839Z,19.70
2023-01-11T02:42:48.816Z,18.60
2023-01-11T02:52:48.841Z,20.00
2023-01-11T03:02:48.914Z,18.90
2023-01-11T03:12:48.806Z,16.10
2023-01-11T03:22:48.851Z,17.90
2023-01-11T03:32:48.822Z,15.10
2023-01-11T03:42:48.879Z,17.40
2023-01-11T03:52:48.851Z,18.80
2023-01-11T04:02:48.816Z,17.30
2023-01-11T04:12:48.948Z,16.90
2023-01-11T04:22:48.916Z,19.60
2023-01-11T04:32:48.888Z,18.40
2023-01-11T04:42:48.909Z,18.10
2023-01-11T04:52:48.876Z,18.20
2023-01-11T05:02:48.860Z,19.60
2023-01-11T05:12:48.882Z,21.10
2023-01-11T05:22:48.915Z,17.50
2023-01-11T05:32:48.890Z,22.00
2023-01-11T05:42:48.898Z,20.90
2023-01-11T05:52:48.860Z,18.70
2023-01-11T06:02:49.075Z,16.60
2023-01-11T06:12:48.885Z,17.90
2023-01-11T06:22:48.894Z,16.40
2023-01-11T06:32:48.865Z,15.80
2023-01-11T06:42:48.880Z,16.50
2023-01-11T06:52:48.903Z,18.60
2023-01-11T07:02:48.906Z,16.60
2023-01-11T07:12:48.907Z,15.90
2023-01-11T07:22:48.884Z,17.60
2023-01-11T07:32:48.904Z,18.40
2023-01-11T07:42:48.984Z,16.40
2023-01-11T07:52:48.914Z,17.10
2023-01-11T08:02:48.945Z,15.40
2023-01-11T08:12:51.441Z,19.10
2023-01-11T08:22:48.906Z,20.50
2023-01-11T08:32:48.957Z,17.10
2023-01-11T08:42:48.943Z,19.10
2023-01-11T08:52:48.935Z,20.70
2023-01-11T09:02:48.960Z,18.90
2023-01-11T09:12:48.959Z,15.80
2023-01-11T09:22:49.766Z,16.10
2023-01-11T09:32:48.926Z,17.00
2023-01-11T09:42:48.995Z,17.10
2023-01-11T09:52:48.954Z,16.40
2023-01-11T10:02:49.056Z,18.90
2023-01-11T10:22:48.949Z,16.20
2023-01-11T10:32:48.957Z,16.80
2023-01-11T10:42:48.996Z,14.60
2023-01-11T10:52:48.996Z,16.50
2023-01-11T11:02:49.050Z,15.60
2023-01-11T11:12:48.996Z,15.10
2023-01-11T11:22:48.979Z,14.20
2023-01-11T11:32:48.989Z,15.60
2023-01-11T11:42:49.000Z,14.60
2023-01-11T11:52:48.979Z,10.50
2023-01-11T12:02:49.062Z,2.00
2023-01-11T12:12:49.101Z,2.90
2023-01-11T12:22:49.014Z,3.00
2023-01-11T12:32:49.101Z,1.90
2023-01-11T12:42:49.055Z,10.30
2023-01-11T12:52:49.023Z,9.90
2023-01-11T13:02:49.089Z,11.60
2023-01-11T13:12:49.108Z,12.60
2023-01-11T13:22:49.014Z,13.90
2023-01-11T13:32:49.038Z,14.30
2023-01-11T13:49:45.682Z,15.10
2023-01-11T13:59:45.694Z,14.70
2023-01-11T14:09:45.686Z,15.40
2023-01-11T14:19:45.688Z,15.30
2023-01-11T14:29:45.735Z,15.90
2023-01-11T14:39:45.697Z,16.60
2023-01-11T14:49:45.724Z,16.40
2023-01-11T14:59:45.705Z,17.00
2023-01-11T15:09:45.715Z,17.10
2023-01-11T15:19:45.763Z,17.00
2023-01-11T15:29:45.767Z,17.80
2023-01-11T15:39:45.843Z,18.20
2023-01-11T15:49:45.770Z,19.90
2023-01-11T15:59:45.822Z,18.70
2023-01-11T16:09:45.747Z,17.80
2023-01-11T16:19:45.777Z,19.00
2023-01-11T16:29:46.044Z,16.70
2023-01-11T16:39:47.074Z,18.10
2023-01-11T16:49:45.755Z,19.70
2023-01-11T16:59:45.777Z,18.20
2023-01-11T17:09:45.794Z,19.40
2023-01-11T17:19:45.784Z,18.10
2023-01-11T17:29:45.762Z,19.90
2023-01-11T17:39:45.791Z,18.20
2023-01-11T17:49:45.774Z,18.80
2023-01-11T17:59:45.797Z,18.20
2023-01-11T18:09:46.117Z,19.70
2023-01-11T18:19:45.807Z,19.90
2023-01-11T18:29:45.836Z,19.20
2023-01-11T18:39:45.793Z,20.00
2023-01-11T18:49:45.860Z,20.70
2023-01-11T18:59:45.870Z,19.00
2023-01-11T19:09:45.800Z,21.10
2023-01-11T19:19:45.822Z,22.00
2023-01-11T19:29:45.928Z,19.00
2023-01-11T19:39:46.409Z,22.10
2023-01-11T19:49:45.885Z,22.00
2023-01-11T19:59:45.966Z,17.70
2023-01-11T20:09:45.883Z,19.60
2023-01-11T20:19:45.883Z,19.20
2023-01-11T20:29:45.876Z,18.10
2023-01-11T20:39:45.980Z,18.20
2023-01-11T20:49:45.890Z,16.40
2023-01-11T20:59:46.718Z,16.50
2023-01-11T21:09:45.893Z,17.20
2023-01-11T21:19:45.833Z,19.80
2023-01-11T21:29:45.886Z,18.20
2023-01-11T21:39:45.927Z,16.90
2023-01-11T21:49:45.843Z,18.70
2023-01-11T21:59:45.871Z,19.30
2023-01-11T22:10:03.518Z,18.00
2023-01-11T22:19:45.884Z,17.10
2023-01-11T22:29:45.978Z,18.50
2023-01-11T22:39:45.856Z,19.50
2023-01-11T22:49:45.963Z,18.40
2023-01-11T22:59:45.901Z,17.50
2023-01-11T23:09:45.900Z,19.40
2023-01-11T23:19:45.881Z,18.30
2023-01-11T23:29:46.002Z,19.80
2023-01-11T23:39:45.901Z,19.40
2023-01-11T23:49:45.902Z,19.10
2023-01-11T23:59:45.940Z,19.70
